Time;durP1;ratioP1;P1;durP2;ratioP2;P2;SDS_P1;SDS_P2;PMS_P1;PMS_P2;Temp;Humidity;BMP_temperature;BMP_pressure;BME280_temperature;BME280_humidity;BME280_pressure;Samples;Min_cycle;Max_cycle;Signal;HPM_P1;HPM_P2
2022/07/30 00:00:36;;;;;;;10.48;4.80;;;;;;;16.50;81.54;101682.13;4971931;28;20580;-89
2022/07/30 00:03:01;;;;;;;12.97;4.73;;;;;;;16.42;82.30;101673.78;4954319;28;20042;-89
2022/07/30 00:05:27;;;;;;;11.70;4.73;;;;;;;16.38;81.89;101672.69;4970719;28;20034;-89
2022/07/30 00:07:52;;;;;;;12.57;4.93;;;;;;;16.34;82.11;101672.44;4972188;28;20089;-89
2022/07/30 00:10:19;;;;;;;14.93;5.10;;;;;;;16.27;83.75;101672.75;4971479;28;20027;-89
2022/07/30 00:12:44;;;;;;;13.88;5.40;;;;;;;16.26;83.00;101673.00;4968133;28;20062;-89
2022/07/30 00:15:10;;;;;;;14.73;5.00;;;;;;;16.20;83.38;101666.81;4970818;28;20046;-89
2022/07/30 00:17:35;;;;;;;16.37;5.23;;;;;;;16.16;83.80;101666.56;4971769;28;20068;-89
2022/07/30 00:20:01;;;;;;;8.57;5.47;;;;;;;16.17;84.96;101667.34;4972801;28;20418;-89
2022/07/30 00:22:26;;;;;;;11.80;5.78;;;;;;;16.13;84.87;101664.41;4973979;28;20093;-89
2022/07/30 00:24:52;;;;;;;13.43;5.73;;;;;;;16.00;85.95;101654.19;4976664;28;20031;-89
2022/07/30 00:27:17;;;;;;;14.27;6.13;;;;;;;15.96;87.03;101659.31;4981993;28;20029;-89
2022/07/30 00:29:43;;;;;;;17.33;5.78;;;;;;;15.96;85.78;101655.81;4992606;28;20130;-89
2022/07/30 00:32:08;;;;;;;11.33;5.27;;;;;;;15.95;85.47;101662.28;4987108;28;20138;-89
2022/07/30 00:34:33;;;;;;;14.77;5.77;;;;;;;15.88;86.68;101655.28;4972292;28;20050;-89
2022/07/30 00:37:01;;;;;;;15.15;5.70;;;;;;;15.87;86.14;101659.06;4984984;28;20027;-88
2022/07/30 00:39:28;;;;;;;11.50;5.93;;;;;;;15.81;87.24;101665.53;4975472;28;20030;-89
2022/07/30 00:41:56;;;;;;;13.50;5.90;;;;;;;15.78;87.26;101666.06;4974432;28;20093;-89
2022/07/30 00:44:21;;;;;;;13.23;6.07;;;;;;;15.75;87.29;101669.31;4975138;28;20041;-90
2022/07/30 00:46:46;;;;;;;11.23;6.10;;;;;;;15.67;88.02;101656.38;4957958;28;20374;-89
2022/07/30 00:49:12;;;;;;;11.90;6.23;;;;;;;15.65;87.71;101661.22;4976081;28;20050;-89
2022/07/30 00:51:37;;;;;;;16.37;6.47;;;;;;;15.63;88.16;101664.19;4974672;28;20031;-90
2022/07/30 00:54:02;;;;;;;22.43;6.80;;;;;;;15.64;89.19;101667.72;4975174;28;20034;-89
2022/07/30 00:56:29;;;;;;;13.57;7.30;;;;;;;15.65;89.76;101662.03;4976984;28;20018;-90
2022/07/30 00:58:54;;;;;;;12.20;7.17;;;;;;;15.57;91.22;101660.69;4978867;28;20333;-89
2022/07/30 01:01:20;;;;;;;17.20;7.93;;;;;;;15.56;91.09;101664.47;4974195;28;20030;-89
2022/07/30 01:03:45;;;;;;;20.50;7.27;;;;;;;15.54;90.14;101655.81;4985169;28;20039;-92
2022/07/30 01:06:10;;;;;;;13.17;6.70;;;;;;;15.54;90.02;101668.53;4984868;28;20027;-88
2022/07/30 01:08:36;;;;;;;15.27;6.73;;;;;;;15.51;90.88;101669.06;4982367;28;20035;-89
2022/07/30 01:11:01;;;;;;;13.67;7.53;;;;;;;15.43;91.37;101665.81;4982383;28;20027;-88
2022/07/30 01:13:27;;;;;;;15.45;7.07;;;;;;;15.37;91.29;101650.72;4986410;28;20015;-88
2022/07/30 01:15:52;;;;;;;14.03;7.47;;;;;;;15.39;91.24;101661.22;4987777;28;20049;-88
2022/07/30 01:18:19;;;;;;;12.40;7.13;;;;;;;15.33;91.11;101662.31;4975001;28;20038;-87
2022/07/30 01:20:56;;;;;;;13.27;8.20;;;;;;;15.31;93.07;101661.78;4970922;28;20042;-87
2022/07/30 01:23:30;;;;;;;13.30;7.75;;;;;;;15.25;93.18;101650.97;4972980;28;20027;-88
2022/07/30 01:26:01;;;;;;;10.85;6.70;;;;;;;15.22;92.15;101648.81;4972570;28;20086;-88
2022/07/30 01:28:37;;;;;;;14.98;7.43;;;;;;;15.15;91.74;101648.28;4959999;28;20042;-88
2022/07/30 01:31:05;;;;;;;14.63;7.75;;;;;;;15.09;93.38;101660.13;4972731;28;20043;-88
2022/07/30 01:33:33;;;;;;;11.55;7.13;;;;;;;15.10;92.25;101656.38;4974786;28;20031;-88
2022/07/30 01:36:00;;;;;;;14.70;7.60;;;;;;;15.09;92.43;101665.53;4972038;28;20033;-89
2022/07/30 01:38:27;;;;;;;15.47;7.43;;;;;;;15.06;93.30;101656.09;4973536;28;20385;-88
2022/07/30 01:40:54;;;;;;;13.40;7.17;;;;;;;15.01;93.06;101661.47;4972715;28;20335;-88
2022/07/30 01:43:22;;;;;;;15.27;7.68;;;;;;;14.96;94.25;101656.88;4961979;28;20485;-88
2022/07/30 01:45:49;;;;;;;14.98;8.07;;;;;;;14.95;94.09;101652.56;4973246;28;20082;-88
2022/07/30 01:48:18;;;;;;;17.67;8.75;;;;;;;14.97;94.16;101658.47;4974689;28;20035;-88
2022/07/30 01:50:45;;;;;;;16.23;7.85;;;;;;;14.92;94.36;101658.50;4973794;28;20035;-87
2022/07/30 01:53:15;;;;;;;12.35;7.50;;;;;;;14.87;94.17;101658.47;4970845;28;20479;-88
2022/07/30 01:55:41;;;;;;;17.38;8.30;;;;;;;14.84;94.04;101662.53;4971602;28;20454;-89
2022/07/30 01:58:09;;;;;;;14.77;9.15;;;;;;;14.81;95.60;101659.53;4981957;28;20038;-88
2022/07/30 02:00:37;;;;;;;25.23;9.10;;;;;;;14.76;96.60;101664.94;4984097;28;20125;-88
2022/07/30 02:03:04;;;;;;;15.67;9.43;;;;;;;14.77;97.19;101664.66;4981169;28;20286;-88
2022/07/30 02:05:33;;;;;;;13.82;9.20;;;;;;;14.74;97.50;101664.38;4981429;28;20039;-88
2022/07/30 02:08:05;;;;;;;20.77;10.57;;;;;;;14.72;96.42;101674.63;4986511;28;20025;-88
2022/07/30 02:10:36;;;;;;;19.98;9.43;;;;;;;14.68;96.88;101669.75;4987926;28;20050;-88
2022/07/30 02:13:06;;;;;;;20.48;9.55;;;;;;;14.72;96.32;101677.31;4973451;28;20027;-88
2022/07/30 02:15:56;;;;;;;19.52;9.93;;;;;;;14.67;95.76;101670.78;4973179;28;20030;-88
2022/07/30 02:18:34;;;;;;;13.77;9.57;;;;;;;14.69;95.91;101673.28;4972149;28;20030;-88
2022/07/30 02:21:03;;;;;;;17.40;9.75;;;;;;;14.62;96.22;101672.66;4973631;28;20031;-88
2022/07/30 02:23:34;;;;;;;18.65;10.80;;;;;;;14.53;98.89;101664.28;4973315;28;20019;-87
2022/07/30 02:26:00;;;;;;;17.10;10.20;;;;;;;14.49;97.58;101665.88;4972763;28;20542;-88
2022/07/30 02:28:28;;;;;;;24.73;10.63;;;;;;;14.46;97.56;101669.09;4973426;28;20369;-88
2022/07/30 02:30:58;;;;;;;14.75;10.35;;;;;;;14.41;97.77;101666.41;4975363;28;20106;-87
2022/07/30 02:33:29;;;;;;;19.35;10.15;;;;;;;14.38;97.41;101667.72;4976310;28;20140;-87
2022/07/30 02:35:55;;;;;;;16.13;10.63;;;;;;;14.37;97.61;101672.31;4976508;28;20126;-87
2022/07/30 02:38:24;;;;;;;20.33;10.95;;;;;;;14.31;98.05;101670.66;4974502;28;20027;-88
2022/07/30 02:40:49;;;;;;;19.65;11.23;;;;;;;14.30;98.01;101671.72;4971849;28;20026;-88
2022/07/30 02:43:15;;;;;;;21.50;11.33;;;;;;;14.26;98.43;101673.31;4970360;28;20561;-88
2022/07/30 02:45:43;;;;;;;19.48;11.55;;;;;;;14.20;98.11;101661.69;4971699;28;20031;-87
2022/07/30 02:48:09;;;;;;;16.88;11.32;;;;;;;14.20;98.30;101671.69;4972516;28;20034;-88
2022/07/30 02:50:35;;;;;;;18.20;11.73;;;;;;;14.13;99.06;101671.09;4971606;28;20023;-87
2022/07/30 02:53:04;;;;;;;16.55;10.38;;;;;;;14.13;98.91;101665.72;4953204;28;20030;-88
2022/07/30 02:55:32;;;;;;;18.47;11.30;;;;;;;14.05;98.67;101662.44;4969677;28;20027;-88
2022/07/30 02:57:58;;;;;;;20.30;11.80;;;;;;;13.99;98.47;101671.56;4971372;28;20290;-88
2022/07/30 03:00:25;;;;;;;16.42;12.18;;;;;;;13.94;99.39;101666.13;4971111;28;20041;-88
2022/07/30 03:02:52;;;;;;;22.55;12.32;;;;;;;13.89;99.13;101666.09;4971587;28;20110;-88
2022/07/30 03:05:18;;;;;;;21.90;12.15;;;;;;;13.84;98.87;101669.56;4969217;28;20130;-88
2022/07/30 03:07:45;;;;;;;22.50;12.85;;;;;;;13.83;99.87;101673.34;4970000;28;20248;-88
2022/07/30 03:10:11;;;;;;;20.27;12.52;;;;;;;13.83;100.00;101676.03;4970482;28;20062;-87
2022/07/30 03:12:39;;;;;;;20.38;13.90;;;;;;;13.83;100.00;101680.63;4971317;28;20386;-88
2022/07/30 03:15:05;;;;;;;23.80;13.52;;;;;;;13.78;100.00;101682.19;4967914;28;20027;-87
2022/07/30 03:17:36;;;;;;;25.77;13.13;;;;;;;13.77;100.00;101677.09;4970062;28;20050;-87
2022/07/30 03:20:03;;;;;;;20.63;13.63;;;;;;;13.75;100.00;101680.03;4971527;28;20384;-88
2022/07/30 03:22:32;;;;;;;22.23;13.23;;;;;;;13.73;100.00;101679.47;4971252;28;20109;-88
2022/07/30 03:25:00;;;;;;;20.27;14.00;;;;;;;13.69;100.00;101689.16;4968401;28;20022;-88
2022/07/30 03:27:26;;;;;;;23.17;14.38;;;;;;;13.68;100.00;101682.13;4969261;28;20401;-88
2022/07/30 03:29:54;;;;;;;20.75;13.88;;;;;;;13.65;100.00;101676.44;4971322;28;20106;-88
2022/07/30 03:32:20;;;;;;;20.55;13.63;;;;;;;13.64;100.00;101681.03;4970140;28;20042;-88
2022/07/30 03:34:46;;;;;;;28.90;13.65;;;;;;;13.60;100.00;101679.91;4970669;28;20113;-88
2022/07/30 03:37:12;;;;;;;19.23;13.95;;;;;;;13.53;100.00;101679.31;4970380;28;20053;-88
2022/07/30 03:39:39;;;;;;;25.25;13.82;;;;;;;13.47;100.00;101676.59;4958873;28;20479;-88
2022/07/30 03:42:06;;;;;;;24.77;14.23;;;;;;;13.48;100.00;101677.38;4970881;28;20073;-88
2022/07/30 03:44:33;;;;;;;22.67;14.02;;;;;;;13.47;100.00;101671.19;4970563;28;20018;-88
2022/07/30 03:46:59;;;;;;;24.42;14.35;;;;;;;13.43;100.00;101674.66;4970642;28;20039;-88
2022/07/30 03:49:25;;;;;;;28.92;16.35;;;;;;;13.37;100.00;101671.06;4972019;28;20031;-89
2022/07/30 03:51:52;;;;;;;22.80;14.77;;;;;;;13.36;100.00;101685.59;4969532;28;20381;-89
2022/07/30 03:54:18;;;;;;;26.10;14.47;;;;;;;13.35;100.00;101691.25;4969707;28;20367;-88
2022/07/30 03:56:44;;;;;;;22.70;14.13;;;;;;;13.33;100.00;101692.31;4969580;28;20405;-88
2022/07/30 03:59:09;;;;;;;23.25;14.50;;;;;;;13.34;100.00;101695.81;4970388;28;20487;-88
2022/07/30 04:01:35;;;;;;;25.58;15.50;;;;;;;13.32;100.00;101696.06;4968660;28;20454;-88
2022/07/30 04:04:07;;;;;;;26.10;15.07;;;;;;;13.28;100.00;101694.94;4970514;28;20518;-88
2022/07/30 04:06:38;;;;;;;22.50;14.73;;;;;;;13.28;100.00;101699.53;4974040;28;20117;-88
2022/07/30 04:09:05;;;;;;;25.55;14.85;;;;;;;13.29;100.00;101695.78;4974908;28;20046;-89
2022/07/30 04:11:30;;;;;;;24.05;15.43;;;;;;;13.29;100.00;101693.88;4974075;28;20027;-89
2022/07/30 04:13:56;;;;;;;27.10;15.50;;;;;;;13.32;100.00;101700.66;4976170;28;20061;-89
2022/07/30 04:16:28;;;;;;;25.67;15.73;;;;;;;13.29;100.00;101695.78;4976402;28;20042;-90
2022/07/30 04:18:57;;;;;;;32.05;15.75;;;;;;;13.32;100.00;101701.44;4974834;28;20038;-93
2022/07/30 04:21:24;;;;;;;22.17;15.35;;;;;;;13.34;100.00;101701.19;4976924;28;20059;-89
2022/07/30 04:23:52;;;;;;;22.08;14.98;;;;;;;13.35;100.00;101700.13;4974227;28;20125;-90
2022/07/30 04:26:19;;;;;;;27.27;16.27;;;;;;;13.40;100.00;101702.91;4976205;28;20057;-92
2022/07/30 04:28:45;;;;;;;28.87;16.27;;;;;;;13.42;100.00;101716.13;4975530;28;20038;-89
2022/07/30 04:31:10;;;;;;;27.33;16.73;;;;;;;13.43;100.00;101715.84;4976202;28;20301;-88
2022/07/30 04:33:36;;;;;;;27.73;16.03;;;;;;;13.52;100.00;101715.38;4975602;28;20106;-89
2022/07/30 04:36:08;;;;;;;25.25;16.02;;;;;;;13.56;100.00;101721.88;4975597;28;20110;-89
2022/07/30 04:38:35;;;;;;;24.65;15.32;;;;;;;13.58;100.00;101719.75;4976053;28;20031;-95
2022/07/30 04:41:00;;;;;;;25.80;16.23;;;;;;;13.62;100.00;101720.84;4977359;28;20638;-92
2022/07/30 04:43:26;;;;;;;31.20;15.80;;;;;;;13.64;100.00;101729.50;4974767;28;20035;-92
2022/07/30 04:45:51;;;;;;;28.57;15.50;;;;;;;13.71;100.00;101730.09;4976735;28;20026;-91
2022/07/30 04:48:16;;;;;;;29.15;16.55;;;;;;;13.71;100.00;101732.78;4978280;28;20018;-91
2022/07/30 04:50:45;;;;;;;26.13;16.07;;;;;;;13.79;100.00;101731.50;4975050;28;20423;-91
2022/07/30 04:53:11;;;;;;;27.33;14.82;;;;;;;13.78;100.00;101738.78;4976257;28;20034;-90
2022/07/30 04:55:40;;;;;;;23.90;15.57;;;;;;;13.82;100.00;101736.38;4976035;28;20069;-88
2022/07/30 04:58:07;;;;;;;24.30;14.55;;;;;;;13.87;100.00;101744.50;4981867;28;20451;-89
2022/07/30 05:00:37;;;;;;;21.58;15.20;;;;;;;13.93;100.00;101743.47;4976394;28;20430;-88
2022/07/30 05:03:04;;;;;;;29.63;15.15;;;;;;;14.29;100.00;101748.28;4977080;28;20109;-88
2022/07/30 05:05:31;;;;;;;20.45;13.52;;;;;;;15.02;99.08;101756.72;4940002;29;20387;-88
2022/07/30 05:07:59;;;;;;;19.73;13.10;;;;;;;15.69;95.18;101756.88;4957890;29;20027;-88
2022/07/30 05:10:24;;;;;;;26.83;12.50;;;;;;;16.27;92.48;101755.75;4960712;28;20031;-87
2022/07/30 05:12:49;;;;;;;16.10;11.17;;;;;;;16.73;90.04;101752.91;4976916;28;20023;-89
2022/07/30 05:15:15;;;;;;;17.03;11.77;;;;;;;17.22;87.51;101759.47;4975497;28;20030;-88
2022/07/30 05:17:40;;;;;;;20.97;11.00;;;;;;;17.71;85.74;101765.09;4956008;28;20123;-88
2022/07/30 05:20:06;;;;;;;15.27;10.87;;;;;;;18.16;82.26;101756.84;4970411;28;20333;-88
2022/07/30 05:22:31;;;;;;;14.52;9.73;;;;;;;18.77;78.55;101762.69;4973424;28;20057;-88
2022/07/30 05:24:57;;;;;;;18.83;10.43;;;;;;;19.26;76.13;101755.28;4971950;28;20405;-88
2022/07/30 05:27:22;;;;;;;13.17;9.17;;;;;;;19.79;73.87;101764.25;4974254;28;20030;-88
2022/07/30 05:29:48;;;;;;;14.30;9.23;;;;;;;20.27;71.42;101763.13;4969481;28;20058;-88
2022/07/30 05:32:13;;;;;;;18.52;9.35;;;;;;;20.65;71.22;101759.41;4973859;28;20018;-88
2022/07/30 05:34:38;;;;;;;16.03;8.97;;;;;;;20.90;69.51;101766.25;4973393;28;20117;-88
2022/07/30 05:37:05;;;;;;;12.93;8.60;;;;;;;21.14;67.42;101768.72;4971603;28;20030;-88
2022/07/30 05:39:30;;;;;;;11.93;8.63;;;;;;;21.13;67.40;101764.38;4971750;28;20126;-88
2022/07/30 05:41:55;;;;;;;16.90;9.10;;;;;;;21.10;68.00;101766.94;4973173;28;20109;-88
2022/07/30 05:44:22;;;;;;;13.93;8.53;;;;;;;21.00;68.54;101774.19;4973277;28;20019;-88
2022/07/30 05:46:48;;;;;;;14.18;9.55;;;;;;;20.69;69.20;101772.09;4970300;28;20046;-88
2022/07/30 05:49:14;;;;;;;13.23;8.68;;;;;;;20.37;69.37;101778.44;4970089;28;20529;-88
2022/07/30 05:51:40;;;;;;;15.10;9.02;;;;;;;20.10;71.32;101778.13;4973122;28;20038;-93
2022/07/30 05:54:05;;;;;;;14.17;8.57;;;;;;;19.89;71.99;101787.78;4973188;28;20199;-89
2022/07/30 05:56:30;;;;;;;20.05;10.02;;;;;;;19.46;74.91;101788.66;4971491;28;20035;-88
2022/07/30 05:58:55;;;;;;;17.70;9.60;;;;;;;18.93;76.50;101774.16;4972317;28;20038;-93
2022/07/30 06:01:30;;;;;;;14.63;8.93;;;;;;;18.55;78.65;101784.94;5137865;23;20053;-93
2022/07/30 06:04:34;;;;;;;13.18;9.10;;;;;;;18.30;79.46;101784.91;4991322;28;20049;-90
2022/07/30 06:06:59;;;;;;;14.37;9.27;;;;;;;17.99;82.81;101777.09;5417814;23;20066;-91
2022/07/30 06:09:25;;;;;;;15.90;9.27;;;;;;;17.80;83.30;101765.28;4981989;28;20293;-90
2022/07/30 06:11:50;;;;;;;15.97;9.23;;;;;;;17.80;85.02;101778.84;4965863;28;20541;-92
2022/07/30 06:14:27;;;;;;;15.57;9.50;;;;;;;17.75;85.25;101784.31;4992253;28;20026;-91
2022/07/30 06:16:55;;;;;;;17.15;9.35;;;;;;;17.58;86.37;101788.22;4994549;28;20030;-93
2022/07/30 06:19:47;;;;;;;15.02;9.40;;;;;;;17.44;86.68;101787.25;4990868;28;20038;-93
2022/07/30 06:22:13;;;;;;;20.92;9.20;;;;;;;17.28;87.57;101773.78;4991052;28;20485;-91
2022/07/30 06:24:57;;;;;;;19.97;9.63;;;;;;;17.38;88.37;101789.97;4997306;28;20033;-92
2022/07/30 06:27:35;;;;;;;12.27;8.67;;;;;;;17.44;86.69;101779.91;4998369;28;20285;-93
2022/07/30 06:38:33;;;;;;;14.98;8.45;;;;;;;17.56;86.96;101793.94;5008380;28;20159;-90
2022/07/30 06:41:14;;;;;;;15.00;8.40;;;;;;;17.67;86.66;101799.25;5004878;28;20058;-89
2022/07/30 06:43:40;;;;;;;14.50;7.80;;;;;;;17.87;85.33;101803.75;4993464;28;20029;-91
2022/07/30 06:46:05;;;;;;;11.80;7.40;;;;;;;17.99;84.91;101806.09;5004638;28;20474;-90
2022/07/30 06:48:30;;;;;;;16.50;8.43;;;;;;;18.07;84.47;101808.19;5010420;28;20061;-94
2022/07/30 06:50:55;;;;;;;15.40;7.57;;;;;;;18.40;83.95;101810.34;5009036;28;20026;-91
2022/07/30 06:53:22;;;;;;;20.60;7.80;;;;;;;18.58;82.49;101806.06;5006961;28;20137;-90
2022/07/30 06:55:49;;;;;;;7.93;6.53;;;;;;;18.58;81.65;101806.88;5007096;28;20118;-88
2022/07/30 06:58:14;;;;;;;14.95;6.78;;;;;;;18.59;82.10;101808.50;5004256;28;20049;-91
2022/07/30 07:00:41;;;;;;;11.73;6.13;;;;;;;18.66;81.38;101808.16;5009561;28;20025;-90
2022/07/30 07:03:10;;;;;;;11.70;5.75;;;;;;;18.75;81.73;101811.03;5011026;28;20508;-91
2022/07/30 07:05:36;;;;;;;14.02;5.95;;;;;;;18.94;80.49;101807.56;5011205;28;20022;-90
2022/07/30 07:08:01;;;;;;;12.17;5.23;;;;;;;19.20;78.27;101800.72;5011535;28;20047;-91
2022/07/30 07:10:27;;;;;;;8.90;3.70;;;;;;;19.45;75.61;101806.88;5009182;28;20391;-89
2022/07/30 07:12:52;;;;;;;9.30;3.20;;;;;;;19.41;74.95;101808.56;5011021;28;20498;-90
2022/07/30 07:15:18;;;;;;;8.52;3.30;;;;;;;19.37;73.53;101810.25;5008929;28;20030;-90
2022/07/30 07:17:43;;;;;;;7.57;2.80;;;;;;;19.44;72.57;101818.06;5009223;28;20065;-90
2022/07/30 07:20:11;;;;;;;6.73;3.30;;;;;;;19.60;72.90;101821.34;4992896;28;20049;-89
2022/07/30 07:22:37;;;;;;;8.93;3.40;;;;;;;19.62;71.51;101821.88;5010839;28;20061;-89
2022/07/30 07:25:05;;;;;;;11.25;3.20;;;;;;;19.63;70.99;101815.34;5010523;28;20508;-89
2022/07/30 07:27:33;;;;;;;6.10;3.37;;;;;;;19.58;71.49;101813.50;5008668;28;20052;-90
2022/07/30 07:29:58;;;;;;;8.60;3.53;;;;;;;19.47;70.32;101810.13;5006263;28;20660;-90
2022/07/30 07:32:24;;;;;;;9.93;3.40;;;;;;;19.42;71.34;101806.69;5001128;28;20030;-90
2022/07/30 07:34:49;;;;;;;8.77;3.50;;;;;;;19.44;70.98;101818.06;4988880;28;20023;-90
2022/07/30 07:37:15;;;;;;;7.17;2.90;;;;;;;19.40;70.59;101815.13;4991220;28;20030;-91
2022/07/30 07:39:50;;;;;;;5.57;2.70;;;;;;;19.64;68.26;101812.31;4989076;28;20037;-94
2022/07/30 07:43:00;;;;;;;5.90;3.20;;;;;;;19.81;68.40;101822.66;5246253;23;20050;-94
2022/07/30 07:45:44;;;;;;;6.80;2.65;;;;;;;19.89;66.92;101823.13;4994375;28;20041;-90
2022/07/30 07:56:07;;;;;;;;;;;;;;;;;;;;;
2022/07/30 07:59:46;;;;;;;8.47;2.77;;;;;;;19.85;66.62;101830.22;4989954;28;20045;-91
2022/07/30 08:02:10;;;;;;;10.20;2.77;;;;;;;19.72;67.12;101799.94;4990253;28;20857;-91
2022/07/30 08:04:36;;;;;;;9.18;3.05;;;;;;;19.89;67.23;101804.09;4972959;28;20034;-91
2022/07/30 08:07:04;;;;;;;6.80;3.03;;;;;;;20.00;66.00;101804.69;4990595;28;20027;-90
2022/07/30 08:09:33;;;;;;;6.47;2.80;;;;;;;20.26;65.31;101805.06;4990741;28;20046;-91
2022/07/30 08:12:27;;;;;;;6.82;2.67;;;;;;;20.62;66.41;101822.63;4990657;28;20121;-90
2022/07/30 08:19:23;;;;;;;3.80;2.47;;;;;;;21.01;64.38;101819.41;4911128;29;20172;-92
2022/07/30 08:25:23;;;;;;;7.72;2.50;;;;;;;21.18;61.41;101810.59;4831767;29;20526;-91
2022/07/30 08:28:28;;;;;;;6.50;2.83;;;;;;;21.29;62.50;101804.91;4884591;29;20036;-90
2022/07/30 08:31:29;;;;;;;5.60;2.25;;;;;;;21.24;61.67;101797.66;4872387;29;20052;-89
2022/07/30 08:34:21;;;;;;;;;;;;;;;;;;;;;
2022/07/30 08:37:02;;;;;;;7.90;2.13;;;;;;;21.37;60.00;101806.09;4871087;29;20557;-90
2022/07/30 08:40:13;;;;;;;6.63;2.63;;;;;;;21.48;60.88;101802.84;4930212;29;20023;-91
2022/07/30 08:46:57;;;;;;;8.25;3.00;;;;;;;21.88;58.86;101815.03;4936981;28;20054;-91
2022/07/30 08:49:28;;;;;;;5.27;2.33;;;;;;;22.12;58.50;101809.22;4926195;29;20035;-90
2022/07/30 08:52:22;;;;;;;4.27;2.70;;;;;;;22.31;58.74;101805.47;4930231;29;20803;-89
2022/07/30 08:55:42;;;;;;;5.90;2.47;;;;;;;22.34;58.21;101811.13;4932626;29;20079;-90
2022/07/30 08:58:30;;;;;;;6.68;2.00;;;;;;;22.51;54.85;101828.72;4993493;28;20026;-91
2022/07/30 09:01:10;;;;;;;7.00;2.15;;;;;;;22.42;53.69;101816.91;5013270;28;20033;-91
2022/07/30 09:04:08;;;;;;;4.20;1.75;;;;;;;22.39;54.91;101818.34;5012952;28;20121;-90
2022/07/30 09:07:04;;;;;;;5.85;1.90;;;;;;;22.44;54.30;101820.97;5013886;28;20034;-90
2022/07/30 09:12:35;;;;;;;6.72;2.38;;;;;;;22.58;53.46;101820.84;5026097;23;20078;-91
2022/07/30 09:22:46;;;;;;;3.77;2.37;;;;;;;22.45;53.77;101808.94;4952052;28;20354;-90
2022/07/30 09:28:56;;;;;;;3.22;2.10;;;;;;;22.91;51.81;101836.88;4952621;28;20039;-90
2022/07/30 09:32:03;;;;;;;6.47;2.53;;;;;;;23.26;51.33;101833.41;4974389;28;20058;-90
2022/07/30 09:38:14;;;;;;;7.00;1.80;;;;;;;23.31;49.96;101829.72;4899677;29;20041;-90
2022/07/30 09:40:49;;;;;;;6.60;2.17;;;;;;;23.35;51.06;101830.69;4923658;29;20449;-89
2022/07/30 09:43:22;;;;;;;4.53;2.20;;;;;;;23.49;49.73;101825.06;4924824;29;20036;-90
2022/07/30 09:46:39;;;;;;;4.85;2.00;;;;;;;23.59;47.91;101822.00;4908185;29;20090;-91
2022/07/30 09:49:31;;;;;;;3.30;2.17;;;;;;;23.82;49.22;101833.56;4974030;28;20039;-90
2022/07/30 09:52:04;;;;;;;3.47;2.47;;;;;;;23.88;47.43;101813.09;4966575;28;20301;-89
2022/07/30 09:54:49;;;;;;;3.58;1.90;;;;;;;24.24;47.84;101834.94;4974181;28;20041;-89
2022/07/30 09:57:15;;;;;;;4.63;2.30;;;;;;;24.11;45.72;101812.09;4993535;28;20553;-88
2022/07/30 09:59:40;;;;;;;3.95;1.70;;;;;;;24.22;46.22;101813.38;4991355;28;20138;-90
2022/07/30 10:05:52;;;;;;;4.95;2.50;;;;;;;24.58;45.41;101823.03;4931813;29;20038;-90
2022/07/30 10:08:40;;;;;;;4.43;1.57;;;;;;;24.60;46.67;101796.13;4954576;28;20057;-90
2022/07/30 10:13:57;;;;;;;5.18;1.88;;;;;;;24.97;45.75;101803.81;4993285;28;20048;-90
2022/07/30 10:16:32;;;;;;;3.60;2.10;;;;;;;25.19;45.84;101802.72;4993579;28;20112;-89
2022/07/30 10:18:59;;;;;;;4.72;1.90;;;;;;;25.45;44.22;101820.13;4992326;28;20033;-89
2022/07/30 10:24:23;;;;;;;4.70;1.75;;;;;;;25.46;42.77;101806.06;4977095;28;20533;-88
2022/07/30 10:26:54;;;;;;;7.28;1.98;;;;;;;25.47;43.19;101810.41;4993000;28;20027;-89
2022/07/30 10:29:29;;;;;;;2.70;1.50;;;;;;;25.54;42.86;101799.69;4992441;28;20045;-89
2022/07/30 10:32:01;;;;;;;4.57;1.77;;;;;;;25.86;42.95;101796.44;4992831;28;20069;-90
2022/07/30 10:34:31;;;;;;;4.80;1.80;;;;;;;25.97;42.76;101805.06;4992221;28;20070;-90
2022/07/30 10:37:09;;;;;;;4.70;1.67;;;;;;;25.78;42.11;101798.16;4991144;28;20121;-89
2022/07/30 10:39:44;;;;;;;4.70;2.00;;;;;;;25.53;42.03;101811.81;4992318;28;20540;-90
2022/07/30 10:42:24;;;;;;;4.07;1.90;;;;;;;25.32;42.14;101809.03;4992218;28;20564;-89
2022/07/30 10:45:18;;;;;;;5.67;2.03;;;;;;;25.30;43.21;101805.81;4991324;28;20301;-91
2022/07/30 10:47:45;;;;;;;3.92;1.90;;;;;;;25.58;43.42;101809.97;4972606;28;20381;-91
2022/07/30 10:50:14;;;;;;;3.10;1.85;;;;;;;25.96;42.11;101809.75;4990171;28;20610;-89
2022/07/30 10:52:50;;;;;;;5.13;1.80;;;;;;;26.11;42.27;101816.53;4986511;28;20022;-87
2022/07/30 10:55:21;;;;;;;4.65;1.83;;;;;;;26.21;41.80;101818.03;4990184;28;20038;-88
2022/07/30 10:58:05;;;;;;;4.35;1.45;;;;;;;26.36;41.45;101811.09;4989437;28;20113;-88
2022/07/30 11:00:34;;;;;;;3.80;1.67;;;;;;;26.50;40.33;101816.25;4974402;28;20034;-87
2022/07/30 11:03:16;;;;;;;5.32;1.58;;;;;;;26.48;41.09;101815.78;4988470;28;20030;-88
2022/07/30 11:05:45;;;;;;;2.53;1.58;;;;;;;26.71;41.39;101807.06;4989761;28;20046;-88
2022/07/30 11:08:29;;;;;;;4.97;1.60;;;;;;;26.95;40.59;101816.44;4988080;28;20018;-88
2022/07/30 11:10:57;;;;;;;2.60;1.90;;;;;;;27.00;40.03;101808.78;4983718;28;20306;-89
2022/07/30 11:13:49;;;;;;;6.10;1.77;;;;;;;27.26;41.08;101804.78;4990174;28;20065;-91
2022/07/30 11:16:16;;;;;;;2.72;1.63;;;;;;;27.47;38.32;101801.06;4987783;28;20027;-90
2022/07/30 11:19:10;;;;;;;4.05;1.60;;;;;;;27.72;37.14;101815.50;4988124;28;20478;-90
2022/07/30 11:34:40;;;;;;;6.87;2.20;;;;;;;27.84;38.31;101786.34;5943842;22;20046;-91
2022/07/30 11:37:40;;;;;;;4.23;2.00;;;;;;;27.96;37.42;101786.25;5009527;28;20301;-88
2022/07/30 11:40:07;;;;;;;4.40;1.75;;;;;;;27.65;37.17;101787.81;4987460;28;20513;-89
2022/07/30 11:42:41;;;;;;;4.40;1.90;;;;;;;27.64;38.57;101799.97;5004858;28;20537;-88
2022/07/30 11:45:42;;;;;;;5.40;1.90;;;;;;;27.69;39.13;101777.69;5009515;28;20099;-88
2022/07/30 11:48:13;;;;;;;3.20;1.60;;;;;;;27.80;37.91;101780.72;5000349;28;20089;-87
2022/07/30 11:50:39;;;;;;;4.38;1.73;;;;;;;28.07;36.81;101778.25;5009246;28;20109;-87
2022/07/30 11:53:08;;;;;;;3.72;1.70;;;;;;;28.29;37.09;101776.06;5006235;28;20072;-88
2022/07/30 11:55:38;;;;;;;3.20;1.73;;;;;;;28.41;35.46;101784.19;5009160;28;20057;-88
2022/07/30 11:58:06;;;;;;;6.20;1.80;;;;;;;28.20;36.75;101782.53;5010000;28;20060;-87
2022/07/30 12:00:46;;;;;;;3.00;1.63;;;;;;;28.15;37.15;101796.56;5007746;28;20073;-88
2022/07/30 12:03:16;;;;;;;6.07;1.90;;;;;;;28.07;37.07;101783.75;5009655;28;20358;-89
2022/07/30 12:05:43;;;;;;;6.80;1.90;;;;;;;28.32;37.42;101795.41;5009221;28;20050;-87
2022/07/30 12:08:09;;;;;;;4.93;2.20;;;;;;;28.09;36.63;101789.72;4990987;28;20397;-88
2022/07/30 12:10:35;;;;;;;5.45;2.00;;;;;;;27.82;37.57;101781.16;5010013;28;20014;-88
2022/07/30 12:13:12;;;;;;;4.78;2.05;;;;;;;28.30;37.87;101794.19;4992687;28;20150;-87
2022/07/30 12:15:40;;;;;;;3.30;1.90;;;;;;;28.36;36.72;101793.53;4992376;28;20540;-89
2022/07/30 12:18:06;;;;;;;4.68;1.80;;;;;;;28.56;37.18;101793.59;5010546;28;20545;-88
2022/07/30 12:20:32;;;;;;;4.75;1.95;;;;;;;28.83;36.29;101794.63;5009963;28;20029;-88
2022/07/30 12:22:58;;;;;;;8.15;2.15;;;;;;;29.04;36.31;101793.47;4989584;28;20030;-88
2022/07/30 12:25:23;;;;;;;3.77;1.83;;;;;;;29.47;34.79;101779.78;5007315;28;20033;-88
2022/07/30 12:27:49;;;;;;;10.10;2.08;;;;;;;29.77;34.92;101793.72;5011858;28;20049;-88
2022/07/30 12:30:16;;;;;;;4.00;1.90;;;;;;;29.89;34.04;101794.72;5011442;28;20068;-87
2022/07/30 12:32:44;;;;;;;3.80;1.83;;;;;;;29.46;34.86;101786.47;5013781;28;20030;-88
2022/07/30 12:35:10;;;;;;;6.20;1.63;;;;;;;29.50;35.07;101792.03;5011535;28;20030;-89
2022/07/30 12:38:03;;;;;;;4.07;2.07;;;;;;;29.83;35.37;101790.66;5012646;28;20437;-89
2022/07/30 12:40:28;;;;;;;5.47;2.17;;;;;;;30.15;33.93;101788.47;4996317;28;20661;-88
2022/07/30 12:42:54;;;;;;;4.03;2.10;;;;;;;30.51;32.97;101788.19;5011340;28;20068;-88
2022/07/30 12:45:32;;;;;;;9.10;2.23;;;;;;;30.62;33.14;101786.44;5012326;28;20048;-90